sensor_id;sensor_type;location;lat;lon;timestamp;P1;durP1;ratioP1;P2;durP2;ratioP2
62911;SDS011;49111;51.028;4.218;2023-03-13T06:48:28;7.22;;;2.80;;
62911;SDS011;49111;51.028;4.218;2023-03-13T06:50:53;7.70;;;2.67;;
62911;SDS011;49111;51.028;4.218;2023-03-13T06:53:20;10.80;;;3.95;;
62911;SDS011;49111;51.028;4.218;2023-03-13T06:55:46;11.88;;;3.92;;
62911;SDS011;49111;51.028;4.218;2023-03-13T06:58:16;7.53;;;2.70;;
62911;SDS011;49111;51.028;4.218;2023-03-13T07:00:42;7.38;;;2.60;;
62911;SDS011;49111;51.028;4.218;2023-03-13T07:03:08;6.32;;;2.63;;
62911;SDS011;49111;51.028;4.218;2023-03-13T07:05:35;7.25;;;2.65;;
62911;SDS011;49111;51.028;4.218;2023-03-13T07:08:02;7.07;;;2.90;;
62911;SDS011;49111;51.028;4.218;2023-03-13T07:10:29;5.40;;;2.55;;
62911;SDS011;49111;51.028;4.218;2023-03-13T07:12:55;10.43;;;2.90;;
62911;SDS011;49111;51.028;4.218;2023-03-13T07:15:21;6.72;;;2.97;;
62911;SDS011;49111;51.028;4.218;2023-03-13T07:17:47;7.88;;;3.03;;
62911;SDS011;49111;51.028;4.218;2023-03-13T07:20:13;5.53;;;3.60;;
62911;SDS011;49111;51.028;4.218;2023-03-13T07:22:39;6.90;;;3.40;;
62911;SDS011;49111;51.028;4.218;2023-03-13T07:25:05;4.45;;;3.03;;
62911;SDS011;49111;51.028;4.218;2023-03-13T07:27:31;7.43;;;2.55;;
62911;SDS011;49111;51.028;4.218;2023-03-13T07:29:57;6.22;;;2.53;;
62911;SDS011;49111;51.028;4.218;2023-03-13T07:32:23;6.03;;;3.30;;
62911;SDS011;49111;51.028;4.218;2023-03-13T07:34:49;9.40;;;3.33;;
62911;SDS011;49111;51.028;4.218;2023-03-13T07:37:15;6.93;;;2.55;;
62911;SDS011;49111;51.028;4.218;2023-03-13T07:39:41;11.13;;;3.38;;
62911;SDS011;49111;51.028;4.218;2023-03-13T07:42:09;8.68;;;2.42;;
62911;SDS011;49111;51.028;4.218;2023-03-13T07:44:36;7.72;;;2.58;;
62911;SDS011;49111;51.028;4.218;2023-03-13T07:47:01;11.45;;;3.28;;
62911;SDS011;49111;51.028;4.218;2023-03-13T07:49:27;7.53;;;3.28;;
62911;SDS011;49111;51.028;4.218;2023-03-13T07:51:53;6.40;;;2.08;;
62911;SDS011;49111;51.028;4.218;2023-03-13T07:54:19;7.05;;;2.67;;
62911;SDS011;49111;51.028;4.218;2023-03-13T07:56:45;7.05;;;3.15;;
62911;SDS011;49111;51.028;4.218;2023-03-13T07:59:11;10.30;;;3.08;;
62911;SDS011;49111;51.028;4.218;2023-03-13T08:01:37;8.00;;;2.67;;
62911;SDS011;49111;51.028;4.218;2023-03-13T08:04:03;6.45;;;1.92;;
62911;SDS011;49111;51.028;4.218;2023-03-13T08:06:30;8.20;;;2.58;;
62911;SDS011;49111;51.028;4.218;2023-03-13T08:08:58;7.45;;;2.67;;
62911;SDS011;49111;51.028;4.218;2023-03-13T08:11:24;7.97;;;2.58;;
62911;SDS011;49111;51.028;4.218;2023-03-13T08:13:52;9.88;;;2.38;;
62911;SDS011;49111;51.028;4.218;2023-03-13T08:16:24;9.52;;;3.22;;
62911;SDS011;49111;51.028;4.218;2023-03-13T08:18:53;9.70;;;2.85;;
62911;SDS011;49111;51.028;4.218;2023-03-13T08:21:24;9.85;;;2.75;;
62911;SDS011;49111;51.028;4.218;2023-03-13T08:23:53;7.82;;;2.33;;
62911;SDS011;49111;51.028;4.218;2023-03-13T08:26:21;6.22;;;2.50;;
62911;SDS011;49111;51.028;4.218;2023-03-13T08:28:51;2.80;;;1.98;;
62911;SDS011;49111;51.028;4.218;2023-03-13T08:31:19;6.05;;;2.58;;
62911;SDS011;49111;51.028;4.218;2023-03-13T08:33:47;6.20;;;2.40;;
62911;SDS011;49111;51.028;4.218;2023-03-13T08:36:14;8.73;;;3.33;;
62911;SDS011;49111;51.028;4.218;2023-03-13T08:38:45;5.80;;;2.65;;
62911;SDS011;49111;51.028;4.218;2023-03-13T08:41:12;6.18;;;2.70;;
62911;SDS011;49111;51.028;4.218;2023-03-13T08:43:40;5.80;;;2.13;;
62911;SDS011;49111;51.028;4.218;2023-03-13T08:46:06;5.57;;;2.63;;
62911;SDS011;49111;51.028;4.218;2023-03-13T08:48:32;6.15;;;2.50;;
62911;SDS011;49111;51.028;4.218;2023-03-13T08:55:31;6.22;;;2.55;;
62911;SDS011;49111;51.028;4.218;2023-03-13T08:57:56;6.70;;;2.67;;
62911;SDS011;49111;51.028;4.218;2023-03-13T09:00:22;6.75;;;2.53;;
62911;SDS011;49111;51.028;4.218;2023-03-13T09:02:48;9.50;;;2.80;;
62911;SDS011;49111;51.028;4.218;2023-03-13T09:05:14;5.32;;;2.15;;
62911;SDS011;49111;51.028;4.218;2023-03-13T09:07:40;4.28;;;2.05;;
62911;SDS011;49111;51.028;4.218;2023-03-13T09:10:06;7.53;;;2.67;;
62911;SDS011;49111;51.028;4.218;2023-03-13T09:12:32;4.55;;;2.30;;
62911;SDS011;49111;51.028;4.218;2023-03-13T09:14:57;6.88;;;2.75;;
62911;SDS011;49111;51.028;4.218;2023-03-13T09:17:23;4.35;;;1.80;;
62911;SDS011;49111;51.028;4.218;2023-03-13T09:19:50;4.93;;;2.28;;
62911;SDS011;49111;51.028;4.218;2023-03-13T09:22:16;10.18;;;2.38;;
62911;SDS011;49111;51.028;4.218;2023-03-13T09:24:42;6.68;;;2.35;;
62911;SDS011;49111;51.028;4.218;2023-03-13T09:27:09;5.65;;;1.80;;
62911;SDS011;49111;51.028;4.218;2023-03-13T09:29:34;7.03;;;2.53;;
62911;SDS011;49111;51.028;4.218;2023-03-13T09:32:04;5.53;;;2.65;;
62911;SDS011;49111;51.028;4.218;2023-03-13T09:34:30;5.75;;;2.00;;
62911;SDS011;49111;51.028;4.218;2023-03-13T09:36:56;4.20;;;1.70;;
62911;SDS011;49111;51.028;4.218;2023-03-13T09:39:21;5.53;;;1.90;;
62911;SDS011;49111;51.028;4.218;2023-03-13T09:41:52;4.13;;;1.83;;
62911;SDS011;49111;51.028;4.218;2023-03-13T09:44:27;4.72;;;2.10;;
62911;SDS011;49111;51.028;4.218;2023-03-13T09:47:05;4.95;;;1.98;;
62911;SDS011;49111;51.028;4.218;2023-03-13T09:49:50;4.18;;;1.77;;
62911;SDS011;49111;51.028;4.218;2023-03-13T09:52:24;3.63;;;2.20;;
62911;SDS011;49111;51.028;4.218;2023-03-13T09:57:35;3.85;;;1.75;;
62911;SDS011;49111;51.028;4.218;2023-03-13T10:00:13;7.15;;;1.92;;
62911;SDS011;49111;51.028;4.218;2023-03-13T10:02:58;6.43;;;1.70;;
62911;SDS011;49111;51.028;4.218;2023-03-13T10:05:42;4.85;;;1.90;;
62911;SDS011;49111;51.028;4.218;2023-03-13T10:08:24;3.10;;;1.55;;
62911;SDS011;49111;51.028;4.218;2023-03-13T10:10:54;6.40;;;2.45;;
62911;SDS011;49111;51.028;4.218;2023-03-13T10:18:57;3.72;;;2.00;;
62911;SDS011;49111;51.028;4.218;2023-03-13T10:21:25;3.88;;;2.05;;
62911;SDS011;49111;51.028;4.218;2023-03-13T10:26:27;2.78;;;1.40;;
62911;SDS011;49111;51.028;4.218;2023-03-13T10:28:56;2.97;;;1.67;;
62911;SDS011;49111;51.028;4.218;2023-03-13T10:31:35;5.18;;;2.03;;
62911;SDS011;49111;51.028;4.218;2023-03-13T10:34:06;5.43;;;1.95;;
62911;SDS011;49111;51.028;4.218;2023-03-13T10:36:40;4.40;;;1.77;;
62911;SDS011;49111;51.028;4.218;2023-03-13T10:39:13;6.05;;;1.63;;
62911;SDS011;49111;51.028;4.218;2023-03-13T10:41:40;4.38;;;1.50;;
62911;SDS011;49111;51.028;4.218;2023-03-13T10:44:14;2.90;;;1.75;;
62911;SDS011;49111;51.028;4.218;2023-03-13T10:46:45;3.15;;;1.70;;
62911;SDS011;49111;51.028;4.218;2023-03-13T10:49:14;5.00;;;1.65;;
62911;SDS011;49111;51.028;4.218;2023-03-13T10:52:11;5.00;;;1.90;;
62911;SDS011;49111;51.028;4.218;2023-03-13T10:54:51;5.13;;;2.17;;
62911;SDS011;49111;51.028;4.218;2023-03-13T10:59:54;3.65;;;1.42;;
62911;SDS011;49111;51.028;4.218;2023-03-13T11:02:22;5.68;;;1.73;;
62911;SDS011;49111;51.028;4.218;2023-03-13T11:04:51;2.80;;;1.48;;
62911;SDS011;49111;51.028;4.218;2023-03-13T11:12:38;2.10;;;1.17;;
62911;SDS011;49111;51.028;4.218;2023-03-13T11:15:17;4.40;;;1.52;;
62911;SDS011;49111;51.028;4.218;2023-03-13T11:17:50;6.47;;;1.75;;
62911;SDS011;49111;51.028;4.218;2023-03-13T11:20:44;3.90;;;1.45;;
62911;SDS011;49111;51.028;4.218;2023-03-13T11:23:26;2.45;;;1.23;;
62911;SDS011;49111;51.028;4.218;2023-03-13T11:31:04;3.60;;;1.17;;
62911;SDS011;49111;51.028;4.218;2023-03-13T11:33:37;3.63;;;1.23;;
62911;SDS011;49111;51.028;4.218;2023-03-13T11:36:37;3.67;;;1.10;;
62911;SDS011;49111;51.028;4.218;2023-03-13T11:55:25;6.40;;;1.95;;
62911;SDS011;49111;51.028;4.218;2023-03-13T12:00:37;4.47;;;1.10;;
62911;SDS011;49111;51.028;4.218;2023-03-13T12:03:12;3.03;;;1.50;;
62911;SDS011;49111;51.028;4.218;2023-03-13T12:05:47;3.65;;;1.15;;
62911;SDS011;49111;51.028;4.218;2023-03-13T12:11:17;5.45;;;1.00;;
62911;SDS011;49111;51.028;4.218;2023-03-13T12:13:56;1.65;;;0.80;;
62911;SDS011;49111;51.028;4.218;2023-03-13T12:16:37;8.95;;;1.35;;
62911;SDS011;49111;51.028;4.218;2023-03-13T12:19:08;3.65;;;1.15;;
62911;SDS011;49111;51.028;4.218;2023-03-13T12:21:55;3.17;;;1.30;;
62911;SDS011;49111;51.028;4.218;2023-03-13T12:27:37;3.03;;;1.13;;
62911;SDS011;49111;51.028;4.218;2023-03-13T12:36:13;3.80;;;1.13;;
62911;SDS011;49111;51.028;4.218;2023-03-13T12:38:43;3.38;;;1.73;;
62911;SDS011;49111;51.028;4.218;2023-03-13T12:41:25;3.13;;;1.10;;
62911;SDS011;49111;51.028;4.218;2023-03-13T12:43:56;5.07;;;1.23;;
62911;SDS011;49111;51.028;4.218;2023-03-13T12:51:46;6.72;;;1.15;;
62911;SDS011;49111;51.028;4.218;2023-03-13T12:54:35;5.45;;;1.48;;
62911;SDS011;49111;51.028;4.218;2023-03-13T13:00:20;3.75;;;1.10;;
62911;SDS011;49111;51.028;4.218;2023-03-13T13:03:32;3.97;;;1.45;;
62911;SDS011;49111;51.028;4.218;2023-03-13T13:05:56;5.55;;;1.45;;
62911;SDS011;49111;51.028;4.218;2023-03-13T13:08:25;5.40;;;1.08;;
62911;SDS011;49111;51.028;4.218;2023-03-13T13:10:51;2.67;;;1.17;;
62911;SDS011;49111;51.028;4.218;2023-03-13T13:13:29;4.45;;;1.20;;
62911;SDS011;49111;51.028;4.218;2023-03-13T13:16:00;3.85;;;1.10;;
62911;SDS011;49111;51.028;4.218;2023-03-13T13:23:34;2.63;;;1.00;;
62911;SDS011;49111;51.028;4.218;2023-03-13T13:34:59;5.28;;;1.05;;
62911;SDS011;49111;51.028;4.218;2023-03-13T13:39:46;2.42;;;1.25;;
62911;SDS011;49111;51.028;4.218;2023-03-13T13:44:59;3.55;;;1.35;;
62911;SDS011;49111;51.028;4.218;2023-03-13T13:47:27;5.00;;;1.30;;
62911;SDS011;49111;51.028;4.218;2023-03-13T13:49:58;5.32;;;2.00;;
62911;SDS011;49111;51.028;4.218;2023-03-13T13:55:00;2.10;;;0.95;;
62911;SDS011;49111;51.028;4.218;2023-03-13T13:57:31;3.28;;;1.00;;
62911;SDS011;49111;51.028;4.218;2023-03-13T14:02:51;4.20;;;1.10;;
62911;SDS011;49111;51.028;4.218;2023-03-13T14:08:35;4.32;;;1.20;;
62911;SDS011;49111;51.028;4.218;2023-03-13T14:11:04;5.88;;;1.75;;
62911;SDS011;49111;51.028;4.218;2023-03-13T14:13:46;6.22;;;1.77;;
62911;SDS011;49111;51.028;4.218;2023-03-13T14:22:12;4.63;;;1.25;;
62911;SDS011;49111;51.028;4.218;2023-03-13T14:24:38;4.38;;;1.10;;
62911;SDS011;49111;51.028;4.218;2023-03-13T14:27:17;4.10;;;1.20;;
62911;SDS011;49111;51.028;4.218;2023-03-13T14:30:00;4.70;;;1.27;;
62911;SDS011;49111;51.028;4.218;2023-03-13T14:32:28;6.90;;;2.20;;
62911;SDS011;49111;51.028;4.218;2023-03-13T14:34:53;8.60;;;1.73;;
62911;SDS011;49111;51.028;4.218;2023-03-13T14:37:41;4.90;;;1.50;;
62911;SDS011;49111;51.028;4.218;2023-03-13T14:40:30;3.13;;;1.45;;
62911;SDS011;49111;51.028;4.218;2023-03-13T14:43:00;6.13;;;1.45;;
62911;SDS011;49111;51.028;4.218;2023-03-13T14:45:34;3.75;;;1.38;;
62911;SDS011;49111;51.028;4.218;2023-03-13T14:50:36;3.58;;;1.20;;
62911;SDS011;49111;51.028;4.218;2023-03-13T14:53:03;3.78;;;1.33;;
62911;SDS011;49111;51.028;4.218;2023-03-13T14:55:37;4.32;;;1.65;;
62911;SDS011;49111;51.028;4.218;2023-03-13T15:00:43;4.97;;;1.55;;
62911;SDS011;49111;51.028;4.218;2023-03-13T15:08:32;6.95;;;1.65;;
62911;SDS011;49111;51.028;4.218;2023-03-13T15:11:00;6.93;;;1.95;;
62911;SDS011;49111;51.028;4.218;2023-03-13T15:13:27;9.00;;;1.83;;
62911;SDS011;49111;51.028;4.218;2023-03-13T15:15:59;6.00;;;1.73;;
62911;SDS011;49111;51.028;4.218;2023-03-13T15:18:29;5.00;;;1.20;;
62911;SDS011;49111;51.028;4.218;2023-03-13T15:20:57;4.90;;;1.50;;
62911;SDS011;49111;51.028;4.218;2023-03-13T15:23:45;6.47;;;1.83;;
62911;SDS011;49111;51.028;4.218;2023-03-13T15:26:23;3.25;;;1.35;;
62911;SDS011;49111;51.028;4.218;2023-03-13T15:28:49;7.10;;;2.75;;
62911;SDS011;49111;51.028;4.218;2023-03-13T15:31:15;9.07;;;1.65;;
62911;SDS011;49111;51.028;4.218;2023-03-13T15:33:42;5.55;;;1.77;;
62911;SDS011;49111;51.028;4.218;2023-03-13T15:36:08;11.70;;;1.83;;
62911;SDS011;49111;51.028;4.218;2023-03-13T15:38:35;6.75;;;1.70;;
62911;SDS011;49111;51.028;4.218;2023-03-13T15:41:02;4.55;;;1.73;;
62911;SDS011;49111;51.028;4.218;2023-03-13T15:43:29;5.63;;;1.60;;
62911;SDS011;49111;51.028;4.218;2023-03-13T15:45:55;5.88;;;2.03;;
62911;SDS011;49111;51.028;4.218;2023-03-13T15:48:24;7.30;;;2.17;;
62911;SDS011;49111;51.028;4.218;2023-03-13T15:50:52;6.40;;;1.73;;
62911;SDS011;49111;51.028;4.218;2023-03-13T15:53:30;2.90;;;1.48;;
62911;SDS011;49111;51.028;4.218;2023-03-13T15:58:27;6.07;;;1.80;;
62911;SDS011;49111;51.028;4.218;2023-03-13T16:00:54;3.88;;;1.98;;
62911;SDS011;49111;51.028;4.218;2023-03-13T16:03:21;6.13;;;2.10;;
62911;SDS011;49111;51.028;4.218;2023-03-13T16:05:49;6.65;;;1.20;;
62911;SDS011;49111;51.028;4.218;2023-03-13T16:08:23;6.75;;;1.73;;
62911;SDS011;49111;51.028;4.218;2023-03-13T16:10:53;8.55;;;1.65;;
62911;SDS011;49111;51.028;4.218;2023-03-13T16:13:19;9.98;;;1.88;;
62911;SDS011;49111;51.028;4.218;2023-03-13T16:15:45;7.35;;;2.10;;
62911;SDS011;49111;51.028;4.218;2023-03-13T16:18:19;5.82;;;1.55;;
62911;SDS011;49111;51.028;4.218;2023-03-13T16:20:47;6.00;;;1.52;;
62911;SDS011;49111;51.028;4.218;2023-03-13T16:23:14;5.35;;;1.80;;
62911;SDS011;49111;51.028;4.218;2023-03-13T16:25:41;4.03;;;1.50;;
62911;SDS011;49111;51.028;4.218;2023-03-13T16:28:10;6.00;;;2.78;;
62911;SDS011;49111;51.028;4.218;2023-03-13T16:30:37;6.07;;;1.55;;
62911;SDS011;49111;51.028;4.218;2023-03-13T16:33:08;5.00;;;1.85;;
62911;SDS011;49111;51.028;4.218;2023-03-13T16:35:34;5.82;;;1.63;;
62911;SDS011;49111;51.028;4.218;2023-03-13T16:38:00;6.20;;;1.95;;
62911;SDS011;49111;51.028;4.218;2023-03-13T16:40:28;7.70;;;2.30;;
62911;SDS011;49111;51.028;4.218;2023-03-13T16:42:55;4.45;;;2.35;;
62911;SDS011;49111;51.028;4.218;2023-03-13T16:45:21;5.90;;;1.45;;
62911;SDS011;49111;51.028;4.218;2023-03-13T16:47:47;7.07;;;1.95;;
62911;SDS011;49111;51.028;4.218;2023-03-13T16:52:44;7.35;;;2.13;;
62911;SDS011;49111;51.028;4.218;2023-03-13T16:55:10;5.88;;;2.15;;
62911;SDS011;49111;51.028;4.218;2023-03-13T16:57:36;7.15;;;2.40;;
62911;SDS011;49111;51.028;4.218;2023-03-13T17:00:02;6.80;;;1.75;;
62911;SDS011;49111;51.028;4.218;2023-03-13T17:02:48;3.92;;;1.50;;
62911;SDS011;49111;51.028;4.218;2023-03-13T17:05:14;6.57;;;1.73;;
62911;SDS011;49111;51.028;4.218;2023-03-13T17:07:44;9.07;;;1.83;;
62911;SDS011;49111;51.028;4.218;2023-03-13T17:12:51;7.28;;;2.22;;
62911;SDS011;49111;51.028;4.218;2023-03-13T17:15:17;10.05;;;2.05;;
62911;SDS011;49111;51.028;4.218;2023-03-13T17:17:44;7.00;;;1.92;;
62911;SDS011;49111;51.028;4.218;2023-03-13T17:20:16;7.25;;;1.73;;
62911;SDS011;49111;51.028;4.218;2023-03-13T17:22:49;8.82;;;2.00;;
62911;SDS011;49111;51.028;4.218;2023-03-13T17:25:15;6.05;;;1.90;;
62911;SDS011;49111;51.028;4.218;2023-03-13T17:27:42;8.48;;;1.75;;
62911;SDS011;49111;51.028;4.218;2023-03-13T17:30:21;5.68;;;2.20;;
62911;SDS011;49111;51.028;4.218;2023-03-13T17:32:52;7.85;;;1.75;;
62911;SDS011;49111;51.028;4.218;2023-03-13T17:35:19;6.38;;;1.80;;
62911;SDS011;49111;51.028;4.218;2023-03-13T17:37:45;6.45;;;1.80;;
62911;SDS011;49111;51.028;4.218;2023-03-13T17:40:22;5.65;;;1.95;;
62911;SDS011;49111;51.028;4.218;2023-03-13T17:42:50;9.52;;;2.70;;
62911;SDS011;49111;51.028;4.218;2023-03-13T17:45:17;6.68;;;1.60;;
62911;SDS011;49111;51.028;4.218;2023-03-13T17:47:43;6.50;;;1.92;;
62911;SDS011;49111;51.028;4.218;2023-03-13T17:50:13;7.35;;;2.03;;
62911;SDS011;49111;51.028;4.218;2023-03-13T17:52:39;5.07;;;2.35;;
62911;SDS011;49111;51.028;4.218;2023-03-13T17:55:06;7.35;;;2.10;;
62911;SDS011;49111;51.028;4.218;2023-03-13T17:57:32;7.13;;;2.60;;
62911;SDS011;49111;51.028;4.218;2023-03-13T17:59:58;7.18;;;2.00;;
62911;SDS011;49111;51.028;4.218;2023-03-13T18:02:24;7.75;;;2.30;;
62911;SDS011;49111;51.028;4.218;2023-03-13T18:04:49;6.85;;;2.42;;
62911;SDS011;49111;51.028;4.218;2023-03-13T18:07:25;5.20;;;2.00;;
62911;SDS011;49111;51.028;4.218;2023-03-13T18:09:52;9.73;;;2.67;;
62911;SDS011;49111;51.028;4.218;2023-03-13T18:12:18;8.85;;;2.83;;
62911;SDS011;49111;51.028;4.218;2023-03-13T18:14:44;5.95;;;2.22;;
62911;SDS011;49111;51.028;4.218;2023-03-13T18:17:17;6.88;;;2.20;;
62911;SDS011;49111;51.028;4.218;2023-03-13T18:19:47;7.72;;;2.10;;
62911;SDS011;49111;51.028;4.218;2023-03-13T18:22:15;7.00;;;2.63;;
62911;SDS011;49111;51.028;4.218;2023-03-13T18:24:42;8.13;;;2.63;;
62911;SDS011;49111;51.028;4.218;2023-03-13T18:27:18;9.80;;;3.42;;
62911;SDS011;49111;51.028;4.218;2023-03-13T18:29:46;7.75;;;2.45;;
62911;SDS011;49111;51.028;4.218;2023-03-13T18:32:14;8.38;;;2.63;;
62911;SDS011;49111;51.028;4.218;2023-03-13T18:34:41;6.28;;;2.50;;
62911;SDS011;49111;51.028;4.218;2023-03-13T18:39:42;5.18;;;2.38;;
62911;SDS011;49111;51.028;4.218;2023-03-13T18:42:08;9.13;;;2.75;;
62911;SDS011;49111;51.028;4.218;2023-03-13T18:44:34;7.35;;;2.38;;
62911;SDS011;49111;51.028;4.218;2023-03-13T18:47:01;5.32;;;2.83;;
62911;SDS011;49111;51.028;4.218;2023-03-13T18:49:34;11.70;;;3.15;;
62911;SDS011;49111;51.028;4.218;2023-03-13T18:51:59;5.70;;;2.40;;
62911;SDS011;49111;51.028;4.218;2023-03-13T18:54:25;8.48;;;2.35;;
62911;SDS011;49111;51.028;4.218;2023-03-13T18:56:51;8.73;;;2.80;;
62911;SDS011;49111;51.028;4.218;2023-03-13T18:59:18;9.90;;;3.78;;
62911;SDS011;49111;51.028;4.218;2023-03-13T19:01:45;9.02;;;2.38;;
62911;SDS011;49111;51.028;4.218;2023-03-13T19:04:13;8.40;;;2.45;;
62911;SDS011;49111;51.028;4.218;2023-03-13T19:06:40;6.70;;;2.53;;
62911;SDS011;49111;51.028;4.218;2023-03-13T19:14:05;9.38;;;2.88;;
62911;SDS011;49111;51.028;4.218;2023-03-13T19:16:33;8.95;;;2.95;;
62911;SDS011;49111;51.028;4.218;2023-03-13T19:19:11;8.48;;;3.40;;
62911;SDS011;49111;51.028;4.218;2023-03-13T19:21:39;11.85;;;3.13;;
62911;SDS011;49111;51.028;4.218;2023-03-13T19:24:05;8.07;;;2.78;;
62911;SDS011;49111;51.028;4.218;2023-03-13T19:26:34;7.85;;;3.60;;
